Time;durP1;ratioP1;P1;durP2;ratioP2;P2;SDS_P1;SDS_P2;PMS_P1;PMS_P2;Temp;Humidity;BMP_temperature;BMP_pressure;BME280_temperature;BME280_humidity;BME280_pressure;Samples;Min_cycle;Max_cycle;Signal;HPM_P1;HPM_P2
2022/11/27 00:00:23;;;;;;;4.72;2.47;;;12.40;85.30;;;;;;4955312;29;20074;-82
2022/11/27 00:02:48;;;;;;;5.75;2.60;;;12.40;85.30;;;;;;4938075;29;20031;-82
2022/11/27 00:05:14;;;;;;;6.57;3.13;;;12.40;85.20;;;;;;4938071;29;20051;-81
2022/11/27 00:07:39;;;;;;;5.43;2.58;;;12.40;85.10;;;;;;4937924;29;20059;-81
2022/11/27 00:10:06;;;;;;;5.53;2.63;;;12.40;85.10;;;;;;4937696;29;20055;-82
2022/11/27 00:12:31;;;;;;;4.85;2.30;;;12.40;85.10;;;;;;4954924;29;20062;-81
2022/11/27 00:14:57;;;;;;;5.55;2.60;;;12.40;85.20;;;;;;4937962;29;20054;-81
2022/11/27 00:17:22;;;;;;;5.50;2.60;;;12.40;85.20;;;;;;4954923;29;20027;-81
2022/11/27 00:19:48;;;;;;;4.15;2.40;;;12.40;85.10;;;;;;4937565;29;20065;-81
2022/11/27 00:22:13;;;;;;;4.00;2.30;;;12.40;85.00;;;;;;4937523;29;20075;-81
2022/11/27 00:24:39;;;;;;;5.53;2.83;;;12.40;85.00;;;;;;4937669;29;20036;-81
2022/11/27 00:27:05;;;;;;;5.65;2.60;;;12.40;85.10;;;;;;4937542;29;20051;-81
2022/11/27 00:29:31;;;;;;;5.35;2.45;;;12.40;85.20;;;;;;4937615;29;20024;-81
2022/11/27 00:31:56;;;;;;;5.18;2.60;;;12.40;85.20;;;;;;4937460;29;20399;-82
2022/11/27 00:34:22;;;;;;;5.13;2.60;;;12.30;85.20;;;;;;4937664;29;20024;-81
2022/11/27 00:36:48;;;;;;;5.05;2.65;;;12.30;85.10;;;;;;4937607;29;20034;-82
2022/11/27 00:39:13;;;;;;;5.45;2.75;;;12.30;85.20;;;;;;4937453;29;20106;-82
2022/11/27 00:41:39;;;;;;;5.20;2.58;;;12.30;85.20;;;;;;4937155;29;20034;-81
2022/11/27 00:44:04;;;;;;;4.95;3.00;;;12.30;85.20;;;;;;4954612;29;20027;-81
2022/11/27 00:46:33;;;;;;;6.40;3.10;;;12.30;85.20;;;;;;4937439;29;20027;-82
2022/11/27 00:49:00;;;;;;;5.57;2.90;;;12.30;85.20;;;;;;4937266;29;20027;-82
2022/11/27 00:51:27;;;;;;;5.45;2.67;;;12.30;85.20;;;;;;4954165;29;20023;-81
2022/11/27 00:53:53;;;;;;;4.75;2.83;;;12.30;85.20;;;;;;4937622;29;20051;-81
2022/11/27 00:56:22;;;;;;;6.43;2.70;;;12.30;85.20;;;;;;4954578;29;20538;-81
2022/11/27 00:58:48;;;;;;;5.50;2.90;;;12.30;85.30;;;;;;4937280;29;20503;-82
2022/11/27 01:01:26;;;;;;;5.15;2.60;;;12.30;85.20;;;;;;4936978;29;20038;-81
2022/11/27 01:03:53;;;;;;;5.53;2.70;;;12.30;85.30;;;;;;4954394;29;20078;-81
2022/11/27 01:06:19;;;;;;;4.82;2.63;;;12.30;85.30;;;;;;4937530;28;20031;-81
2022/11/27 01:08:45;;;;;;;4.85;2.58;;;12.30;85.30;;;;;;4943656;29;20051;-81
2022/11/27 01:11:14;;;;;;;5.55;2.60;;;12.30;85.30;;;;;;4943364;29;20035;-82
2022/11/27 01:13:40;;;;;;;6.38;2.75;;;12.30;85.20;;;;;;4943718;29;20024;-82
2022/11/27 01:16:18;;;;;;;4.43;2.55;;;12.30;85.30;;;;;;4943620;29;20082;-82
2022/11/27 01:18:45;;;;;;;6.28;2.72;;;12.30;85.30;;;;;;4943355;29;20522;-81
2022/11/27 01:21:12;;;;;;;5.18;2.80;;;12.30;85.30;;;;;;4942955;28;20035;-81
2022/11/27 01:23:37;;;;;;;5.38;2.92;;;12.30;85.30;;;;;;4943408;29;20082;-82
2022/11/27 01:26:05;;;;;;;6.05;2.50;;;12.30;85.30;;;;;;4943522;29;20031;-82
2022/11/27 01:28:31;;;;;;;5.88;2.50;;;12.30;85.30;;;;;;4943285;29;20023;-82
2022/11/27 01:30:58;;;;;;;5.40;2.80;;;12.30;85.30;;;;;;4960331;29;20396;-82
2022/11/27 01:33:24;;;;;;;5.03;2.63;;;12.30;85.30;;;;;;4943148;29;20024;-81
2022/11/27 01:35:57;;;;;;;5.28;2.72;;;12.30;85.30;;;;;;4943290;28;20126;-81
2022/11/27 01:38:23;;;;;;;5.00;2.60;;;12.30;85.30;;;;;;4943483;29;20519;-81
2022/11/27 01:40:56;;;;;;;4.90;2.70;;;12.30;85.30;;;;;;4943273;29;20042;-82
2022/11/27 01:43:47;;;;;;;5.95;2.63;;;12.30;85.30;;;;;;4943474;29;20038;-81
2022/11/27 01:46:22;;;;;;;5.43;2.55;;;12.30;85.20;;;;;;4943088;29;20431;-83
2022/11/27 01:48:49;;;;;;;5.50;3.03;;;12.30;85.10;;;;;;4943256;29;20400;-82
2022/11/27 01:51:15;;;;;;;6.20;2.50;;;12.40;85.10;;;;;;4942986;29;20023;-82
2022/11/27 01:53:41;;;;;;;4.63;2.60;;;12.40;85.00;;;;;;4943294;29;20030;-82
2022/11/27 01:56:08;;;;;;;10.23;2.85;;;12.40;85.00;;;;;;4943147;28;20081;-82
2022/11/27 01:58:34;;;;;;;5.05;2.58;;;12.40;84.90;;;;;;4943120;29;20031;-82
2022/11/27 02:00:59;;;;;;;5.03;2.63;;;12.40;84.90;;;;;;4942775;29;20035;-82
2022/11/27 02:03:25;;;;;;;6.40;2.70;;;12.40;84.90;;;;;;4960157;29;20108;-82
2022/11/27 02:05:51;;;;;;;5.38;2.72;;;12.30;84.90;;;;;;4960193;29;20042;-82
2022/11/27 02:08:17;;;;;;;4.63;2.58;;;12.40;85.00;;;;;;4943000;28;20030;-81
2022/11/27 02:11:35;;;;;;;5.20;2.63;;;12.40;85.10;;;;;;4942841;29;20114;-83
2022/11/27 02:14:26;;;;;;;5.22;2.85;;;12.30;85.00;;;;;;4934476;29;20027;-81
2022/11/27 02:17:05;;;;;;;6.13;2.92;;;12.30;85.00;;;;;;4943117;29;20102;-81
2022/11/27 02:20:11;;;;;;;4.43;2.28;;;12.30;85.10;;;;;;4939949;29;20030;-81
2022/11/27 02:23:20;;;;;;;5.05;2.75;;;12.30;85.10;;;;;;5030524;23;20077;-78
2022/11/27 02:26:12;;;;;;;4.60;2.47;;;12.30;85.10;;;;;;4995553;28;20038;-77
2022/11/27 02:28:55;;;;;;;5.13;2.60;;;12.30;85.10;;;;;;4995421;28;20559;-78
2022/11/27 02:31:31;;;;;;;5.35;2.42;;;12.30;85.20;;;;;;4989216;28;20107;-78
2022/11/27 02:34:09;;;;;;;4.28;2.63;;;12.20;85.10;;;;;;4958210;28;20031;-78
2022/11/27 02:36:38;;;;;;;5.20;2.80;;;12.30;85.20;;;;;;4975761;28;20023;-77
2022/11/27 02:39:10;;;;;;;4.63;2.60;;;12.30;85.20;;;;;;4957690;28;20026;-78
2022/11/27 02:41:45;;;;;;;5.07;2.75;;;12.20;85.10;;;;;;4975374;28;20093;-78
2022/11/27 02:44:12;;;;;;;5.30;2.55;;;12.30;85.20;;;;;;4975740;28;20454;-79
2022/11/27 02:46:40;;;;;;;5.28;2.83;;;12.20;85.10;;;;;;4976315;28;20033;-77
2022/11/27 02:49:12;;;;;;;5.22;2.92;;;12.20;85.10;;;;;;4976069;28;20033;-79
2022/11/27 02:51:43;;;;;;;4.55;2.55;;;12.20;85.10;;;;;;4975373;28;20019;-78
2022/11/27 02:54:13;;;;;;;6.00;2.78;;;12.20;85.10;;;;;;4974561;28;20491;-79
2022/11/27 02:56:41;;;;;;;4.82;2.50;;;12.20;85.10;;;;;;4976816;28;20039;-78
2022/11/27 02:59:11;;;;;;;3.97;2.63;;;12.20;85.00;;;;;;4975944;28;20041;-79
2022/11/27 03:01:41;;;;;;;5.28;2.65;;;12.20;85.00;;;;;;4975729;28;20027;-78
2022/11/27 03:04:13;;;;;;;4.25;2.47;;;12.20;85.00;;;;;;4975601;28;20035;-78
2022/11/27 03:06:43;;;;;;;5.43;2.45;;;12.20;84.90;;;;;;4957871;28;20054;-77
2022/11/27 03:09:28;;;;;;;4.82;2.53;;;12.20;85.00;;;;;;4980030;28;20034;-78
2022/11/27 03:11:55;;;;;;;5.00;2.55;;;12.20;85.00;;;;;;4992951;28;20505;-77
2022/11/27 03:14:23;;;;;;;4.65;2.58;;;12.20;84.90;;;;;;4976244;28;20023;-77
2022/11/27 03:16:58;;;;;;;4.97;2.72;;;12.20;85.00;;;;;;4975681;28;20033;-76
2022/11/27 03:19:42;;;;;;;5.53;2.70;;;12.20;84.90;;;;;;4974877;28;20026;-76
2022/11/27 03:22:09;;;;;;;5.72;2.72;;;12.20;84.90;;;;;;4987977;28;20019;-76
2022/11/27 03:24:35;;;;;;;4.60;2.45;;;12.20;84.90;;;;;;4974236;28;20027;-76
2022/11/27 03:27:02;;;;;;;5.00;2.60;;;12.20;84.90;;;;;;4964951;28;20082;-77
2022/11/27 03:30:04;;;;;;;4.70;2.50;;;12.20;84.90;;;;;;4963416;28;20015;-75
2022/11/27 03:32:31;;;;;;;5.00;2.78;;;12.20;85.00;;;;;;4992531;28;20026;-79
2022/11/27 03:34:56;;;;;;;4.75;2.40;;;12.30;85.00;;;;;;4986734;28;20696;-77
2022/11/27 03:37:23;;;;;;;4.03;2.50;;;12.20;84.90;;;;;;4982355;28;20038;-77
2022/11/27 03:39:49;;;;;;;4.25;2.38;;;12.30;84.90;;;;;;4973976;28;20622;-77
2022/11/27 03:42:20;;;;;;;4.03;2.30;;;12.30;84.80;;;;;;4968537;28;20046;-78
2022/11/27 03:45:10;;;;;;;;;;;12.30;84.70;;;;;;4986527;28;20030;-77
2022/11/27 03:47:57;;;;;;;5.43;2.65;;;12.30;84.60;;;;;;4978479;28;20374;-77
2022/11/27 03:50:43;;;;;;;4.65;2.90;;;12.30;84.40;;;;;;4974541;28;20033;-78
2022/11/27 03:53:26;;;;;;;4.88;2.92;;;12.30;84.30;;;;;;4993665;28;20022;-77
2022/11/27 03:56:16;;;;;;;5.18;2.72;;;12.30;84.30;;;;;;4993199;28;20442;-77
2022/11/27 03:58:50;;;;;;;4.95;2.85;;;12.30;84.40;;;;;;4982765;28;20114;-79
2022/11/27 04:01:20;;;;;;;5.25;3.00;;;12.30;84.50;;;;;;4981443;28;20030;-77
2022/11/27 04:03:45;;;;;;;5.22;2.80;;;12.30;84.40;;;;;;4972132;28;20032;-79
2022/11/27 04:06:11;;;;;;;4.72;2.88;;;12.20;84.20;;;;;;4964561;28;20027;-77
2022/11/27 04:08:37;;;;;;;4.80;2.70;;;12.20;84.30;;;;;;4992691;28;20034;-77
2022/11/27 04:11:03;;;;;;;5.82;3.08;;;12.20;84.30;;;;;;4993150;28;20027;-77
2022/11/27 04:13:29;;;;;;;4.40;2.60;;;12.20;84.30;;;;;;4993166;28;20122;-77
2022/11/27 04:15:54;;;;;;;5.65;3.00;;;12.20;84.30;;;;;;4976008;28;20026;-77
2022/11/27 04:18:20;;;;;;;5.30;2.70;;;12.20;84.40;;;;;;4975725;28;20076;-77
2022/11/27 04:20:45;;;;;;;5.32;3.03;;;12.20;84.40;;;;;;4975452;28;20026;-77
2022/11/27 04:23:11;;;;;;;5.80;2.80;;;12.20;84.40;;;;;;4992903;28;20045;-76
2022/11/27 04:25:36;;;;;;;4.57;2.83;;;12.20;84.40;;;;;;4993072;28;20039;-78
2022/11/27 04:28:02;;;;;;;5.00;2.55;;;12.20;84.40;;;;;;4993105;28;20478;-77
2022/11/27 04:30:27;;;;;;;5.63;3.10;;;12.20;84.40;;;;;;4975376;28;20033;-77
2022/11/27 04:32:53;;;;;;;5.47;3.00;;;12.20;84.50;;;;;;4992874;28;20026;-77
2022/11/27 04:35:18;;;;;;;5.45;2.83;;;12.20;84.50;;;;;;4993105;28;20023;-77
2022/11/27 04:37:44;;;;;;;5.10;2.92;;;12.20;84.50;;;;;;4992871;28;20034;-78
2022/11/27 04:40:10;;;;;;;5.90;3.15;;;12.20;84.50;;;;;;4975140;28;20080;-77
2022/11/27 04:42:35;;;;;;;4.95;2.83;;;12.20;84.50;;;;;;4992521;28;20026;-77
2022/11/27 04:45:01;;;;;;;4.47;2.58;;;12.20;84.50;;;;;;4987294;28;20027;-78
2022/11/27 04:47:26;;;;;;;5.03;2.72;;;12.20;84.50;;;;;;4956198;28;20023;-77
2022/11/27 04:49:52;;;;;;;4.97;2.60;;;12.20;84.50;;;;;;4955817;28;20463;-78
2022/11/27 04:52:17;;;;;;;4.97;2.70;;;12.20;84.60;;;;;;4955932;28;20046;-77
2022/11/27 04:54:43;;;;;;;5.00;2.97;;;12.20;84.50;;;;;;4973367;28;20034;-78
2022/11/27 04:57:08;;;;;;;5.10;2.85;;;12.10;84.50;;;;;;4956130;28;20023;-79
2022/11/27 04:59:34;;;;;;;5.55;2.95;;;12.10;84.50;;;;;;4955759;28;20023;-75
2022/11/27 05:01:59;;;;;;;5.25;2.70;;;12.20;84.60;;;;;;4982594;28;20026;-78
2022/11/27 05:04:25;;;;;;;5.38;3.08;;;12.10;84.40;;;;;;4992438;28;20045;-78
2022/11/27 05:06:50;;;;;;;5.47;2.90;;;12.20;84.60;;;;;;4992517;28;20023;-78
2022/11/27 05:09:17;;;;;;;6.55;2.95;;;12.10;84.50;;;;;;4992712;28;20022;-79
2022/11/27 05:11:42;;;;;;;4.70;2.78;;;12.10;84.40;;;;;;4992162;28;20027;-78
2022/11/27 05:14:14;;;;;;;4.68;2.80;;;12.20;84.50;;;;;;4975283;28;20026;-78
2022/11/27 05:16:50;;;;;;;4.47;2.50;;;12.20;84.50;;;;;;4974801;28;20033;-78
2022/11/27 05:19:18;;;;;;;4.80;2.42;;;12.20;84.50;;;;;;4975069;28;20145;-78
2022/11/27 05:21:45;;;;;;;4.90;2.83;;;12.20;84.50;;;;;;4992013;28;20032;-78
2022/11/27 05:24:11;;;;;;;4.93;2.97;;;12.10;84.50;;;;;;4992609;28;20022;-78
2022/11/27 05:26:38;;;;;;;5.40;2.72;;;12.20;84.60;;;;;;4992542;28;20041;-78
2022/11/27 05:29:04;;;;;;;5.50;2.80;;;12.20;84.70;;;;;;4993183;28;20508;-77
2022/11/27 05:31:30;;;;;;;5.20;2.80;;;12.20;84.60;;;;;;4984191;28;20077;-78
2022/11/27 05:33:55;;;;;;;4.45;2.70;;;12.20;84.50;;;;;;4955489;28;20019;-78
2022/11/27 05:36:21;;;;;;;4.38;2.60;;;12.20;84.50;;;;;;4972798;28;20027;-78
2022/11/27 05:38:47;;;;;;;5.28;3.53;;;12.20;84.40;;;;;;4984406;28;20037;-77
2022/11/27 05:41:12;;;;;;;5.50;2.70;;;12.20;84.30;;;;;;4973242;28;20027;-78
2022/11/27 05:43:38;;;;;;;6.65;2.67;;;12.20;84.20;;;;;;4974920;28;20026;-77
2022/11/27 05:46:05;;;;;;;5.18;2.67;;;12.30;84.20;;;;;;4958401;28;20037;-77
2022/11/27 05:48:31;;;;;;;4.75;2.72;;;12.20;84.20;;;;;;4972812;28;20023;-76
2022/11/27 05:50:57;;;;;;;5.13;2.80;;;12.20;84.20;;;;;;4973783;28;20456;-77
2022/11/27 05:53:22;;;;;;;5.28;2.90;;;12.20;84.20;;;;;;4974855;28;20018;-77
2022/11/27 05:55:48;;;;;;;4.72;2.83;;;12.20;84.20;;;;;;4978630;28;20034;-78
2022/11/27 05:58:13;;;;;;;4.75;2.78;;;12.20;84.10;;;;;;4995309;28;20030;-78
2022/11/27 06:00:39;;;;;;;4.65;3.13;;;12.20;84.10;;;;;;4977889;28;20057;-78
2022/11/27 06:03:04;;;;;;;4.78;2.67;;;12.20;84.10;;;;;;4978017;28;20061;-78
2022/11/27 06:05:30;;;;;;;5.35;2.70;;;12.10;84.10;;;;;;4995062;28;20038;-77
2022/11/27 06:07:55;;;;;;;5.20;2.90;;;12.10;84.10;;;;;;4995291;28;20056;-78
2022/11/27 06:10:21;;;;;;;4.93;2.80;;;12.10;84.20;;;;;;4995349;28;20102;-78
2022/11/27 06:12:46;;;;;;;5.20;2.97;;;12.10;84.20;;;;;;4978006;28;20080;-78
2022/11/27 06:15:12;;;;;;;5.05;2.85;;;12.10;84.20;;;;;;4990952;28;20054;-80
2022/11/27 06:17:38;;;;;;;9.00;3.00;;;12.10;84.20;;;;;;4978507;28;20058;-80
2022/11/27 06:20:04;;;;;;;5.93;3.13;;;12.10;84.20;;;;;;4961743;28;20125;-83
2022/11/27 06:22:30;;;;;;;5.10;3.05;;;12.20;84.30;;;;;;4975082;28;20031;-76
2022/11/27 06:24:55;;;;;;;5.10;2.78;;;12.10;84.20;;;;;;4957618;28;20034;-76
2022/11/27 06:27:21;;;;;;;6.00;3.08;;;12.10;84.20;;;;;;4976218;28;20041;-77
2022/11/27 06:29:46;;;;;;;5.18;3.00;;;12.10;84.00;;;;;;4957651;28;20050;-75
2022/11/27 06:32:12;;;;;;;4.80;3.10;;;12.10;83.90;;;;;;4967204;28;20022;-76
2022/11/27 06:34:37;;;;;;;5.18;3.00;;;12.10;83.90;;;;;;4975407;28;20035;-76
2022/11/27 06:37:03;;;;;;;5.22;3.15;;;12.10;83.90;;;;;;4994368;28;20041;-77
2022/11/27 06:39:28;;;;;;;4.82;2.72;;;12.10;83.80;;;;;;4969586;28;20030;-75
2022/11/27 06:41:54;;;;;;;6.97;3.58;;;12.10;83.80;;;;;;4989665;28;20048;-76
2022/11/27 06:44:19;;;;;;;4.97;2.88;;;12.10;83.80;;;;;;4993590;28;20097;-76
2022/11/27 06:46:45;;;;;;;6.05;3.47;;;12.10;83.80;;;;;;4993529;28;20104;-77
2022/11/27 06:49:11;;;;;;;5.38;3.10;;;12.10;83.80;;;;;;4993710;28;20060;-77
2022/11/27 06:51:36;;;;;;;5.35;3.22;;;12.10;83.80;;;;;;4995759;28;20026;-79
2022/11/27 06:54:02;;;;;;;5.28;3.00;;;12.10;83.80;;;;;;4998719;28;20034;-81
2022/11/27 06:56:29;;;;;;;5.13;3.17;;;12.10;83.80;;;;;;4997850;28;20046;-77
2022/11/27 06:58:57;;;;;;;4.45;2.72;;;12.10;83.80;;;;;;4994234;28;20030;-77
2022/11/27 07:01:25;;;;;;;5.60;3.03;;;12.10;83.70;;;;;;4976604;28;20031;-76
2022/11/27 07:03:51;;;;;;;5.72;3.28;;;12.10;83.80;;;;;;4976585;28;20034;-77
2022/11/27 07:06:20;;;;;;;6.07;3.80;;;12.10;83.70;;;;;;4976631;28;20096;-77
2022/11/27 07:08:46;;;;;;;12.38;4.03;;;12.10;82.60;;;;;;4979375;28;20042;-78
2022/11/27 07:11:18;;;;;;;10.93;4.60;;;12.00;81.90;;;;;;4974459;28;20019;-78
2022/11/27 07:13:48;;;;;;;12.82;4.15;;;12.10;82.10;;;;;;4978304;28;20033;-79
2022/11/27 07:16:15;;;;;;;10.20;4.80;;;12.10;81.80;;;;;;4965975;28;20030;-78
2022/11/27 07:18:47;;;;;;;7.57;3.85;;;12.10;82.20;;;;;;4993183;28;20038;-78
2022/11/27 07:21:13;;;;;;;;;;;12.10;82.30;;;;;;4962665;28;20073;-78
2022/11/27 07:23:38;;;;;;;6.97;3.38;;;12.10;82.50;;;;;;4959501;28;20326;-78
2022/11/27 07:26:06;;;;;;;9.00;3.70;;;12.10;82.30;;;;;;4993469;28;20058;-77
2022/11/27 07:28:32;;;;;;;11.80;4.03;;;12.10;82.40;;;;;;4976300;28;20453;-78
2022/11/27 07:30:58;;;;;;;7.95;4.25;;;12.20;82.40;;;;;;4975643;28;20053;-78
2022/11/27 07:33:24;;;;;;;10.20;4.00;;;12.20;82.20;;;;;;4975712;28;20022;-78
2022/11/27 07:36:00;;;;;;;7.90;3.90;;;12.20;82.30;;;;;;4993624;28;20030;-77
2022/11/27 07:38:26;;;;;;;8.90;3.80;;;12.20;82.30;;;;;;4993611;28;20054;-77
2022/11/27 07:40:51;;;;;;;8.57;3.63;;;12.30;82.30;;;;;;4993530;28;20057;-77
2022/11/27 07:43:17;;;;;;;9.50;4.30;;;12.20;82.20;;;;;;4994008;28;20030;-78
2022/11/27 07:45:42;;;;;;;10.45;4.30;;;12.20;82.20;;;;;;4993702;28;20038;-79
2022/11/27 07:48:08;;;;;;;8.65;4.15;;;12.20;82.20;;;;;;4976974;28;20027;-78
2022/11/27 07:50:33;;;;;;;8.25;4.15;;;12.20;82.30;;;;;;4975953;28;20022;-78
2022/11/27 07:52:59;;;;;;;7.35;3.70;;;12.20;82.40;;;;;;4993711;28;20025;-78
2022/11/27 07:55:24;;;;;;;9.32;3.95;;;12.20;82.40;;;;;;4994089;28;20054;-78
2022/11/27 07:57:50;;;;;;;9.55;4.47;;;12.20;82.50;;;;;;4993481;28;20034;-79
2022/11/27 08:00:16;;;;;;;8.70;3.92;;;12.20;82.50;;;;;;4976804;28;20022;-80
2022/11/27 08:02:41;;;;;;;12.07;4.28;;;12.20;82.60;;;;;;4977571;28;20031;-78
2022/11/27 08:05:07;;;;;;;9.02;4.13;;;12.20;82.60;;;;;;4993592;28;20022;-78
2022/11/27 08:07:33;;;;;;;7.55;4.07;;;12.20;82.70;;;;;;4993403;28;20105;-78
2022/11/27 08:09:58;;;;;;;9.32;3.67;;;12.20;82.80;;;;;;4969955;28;20500;-77
2022/11/27 08:12:25;;;;;;;8.30;4.53;;;12.20;82.80;;;;;;4983488;28;20061;-77
2022/11/27 08:14:51;;;;;;;10.10;4.18;;;12.20;82.80;;;;;;4977382;28;20093;-77
2022/11/27 08:17:17;;;;;;;7.90;3.80;;;12.20;82.80;;;;;;4964165;28;20035;-77
2022/11/27 08:19:42;;;;;;;9.50;3.88;;;12.20;82.80;;;;;;4992279;28;20026;-77
2022/11/27 08:22:12;;;;;;;6.65;3.90;;;12.30;82.70;;;;;;4975159;28;20542;-76
2022/11/27 08:24:38;;;;;;;8.05;3.75;;;12.30;82.50;;;;;;4992902;28;20117;-78
2022/11/27 08:27:04;;;;;;;8.45;3.60;;;12.30;82.40;;;;;;4967129;28;20101;-75
2022/11/27 08:29:29;;;;;;;8.13;3.78;;;12.30;82.40;;;;;;4980841;28;20026;-75
2022/11/27 08:31:55;;;;;;;7.07;3.70;;;12.30;82.30;;;;;;4972130;28;20023;-75
2022/11/27 08:34:20;;;;;;;7.25;3.70;;;12.30;82.20;;;;;;4958235;28;20026;-75
2022/11/27 08:36:46;;;;;;;6.90;3.83;;;12.30;82.20;;;;;;4972713;28;20029;-74
2022/11/27 08:39:11;;;;;;;7.78;3.80;;;12.30;82.10;;;;;;4988846;28;20677;-77
2022/11/27 08:41:37;;;;;;;6.82;3.63;;;12.40;82.20;;;;;;4988336;28;20548;-74
2022/11/27 08:44:03;;;;;;;6.97;3.33;;;12.40;82.20;;;;;;4991691;28;20486;-76
2022/11/27 08:46:28;;;;;;;6.18;3.70;;;12.40;82.20;;;;;;4973259;28;20414;-74
2022/11/27 08:48:54;;;;;;;7.13;3.72;;;12.40;82.20;;;;;;4990793;28;20026;-74
2022/11/27 08:51:19;;;;;;;7.15;3.80;;;12.40;82.10;;;;;;4973550;28;20081;-75
2022/11/27 08:53:45;;;;;;;6.30;3.60;;;12.40;82.10;;;;;;4990958;28;20100;-77
2022/11/27 08:56:18;;;;;;;8.10;3.85;;;12.40;82.10;;;;;;4992113;28;20486;-76
2022/11/27 08:58:44;;;;;;;7.07;4.10;;;12.40;82.00;;;;;;4974843;28;20735;-78
2022/11/27 09:01:25;;;;;;;7.00;3.65;;;12.40;82.00;;;;;;4990757;28;20034;-77
2022/11/27 09:03:51;;;;;;;6.97;4.07;;;12.50;82.10;;;;;;4997769;23;20507;-78
2022/11/27 09:06:22;;;;;;;7.30;3.42;;;12.40;82.10;;;;;;4974712;28;20035;-78
2022/11/27 09:08:48;;;;;;;5.53;3.53;;;12.40;82.20;;;;;;4974813;28;20487;-78
2022/11/27 09:11:18;;;;;;;5.78;3.45;;;12.40;82.20;;;;;;4973229;28;20038;-80
2022/11/27 09:13:44;;;;;;;7.90;3.60;;;12.40;82.20;;;;;;4973433;28;20114;-78
2022/11/27 09:16:13;;;;;;;7.18;3.80;;;12.40;82.10;;;;;;4971038;28;20042;-79
2022/11/27 09:18:39;;;;;;;6.22;3.45;;;12.40;82.10;;;;;;4964214;28;20027;-78
2022/11/27 09:21:07;;;;;;;7.40;3.75;;;12.40;82.10;;;;;;4940095;28;20054;-79
2022/11/27 09:23:33;;;;;;;5.30;3.28;;;12.40;82.20;;;;;;4955148;29;20031;-80
2022/11/27 09:26:01;;;;;;;5.93;3.25;;;12.40;82.10;;;;;;4960417;28;20438;-80
2022/11/27 09:28:27;;;;;;;6.18;3.35;;;12.40;82.00;;;;;;4974170;28;20078;-78
2022/11/27 09:30:57;;;;;;;5.47;3.33;;;12.40;82.10;;;;;;4970559;28;20427;-80
2022/11/27 09:33:24;;;;;;;6.25;3.35;;;12.50;82.10;;;;;;4923339;29;20027;-78
2022/11/27 09:35:50;;;;;;;6.95;3.75;;;12.50;82.00;;;;;;4938635;29;20028;-81
2022/11/27 09:38:15;;;;;;;6.03;3.40;;;12.50;82.00;;;;;;4956111;29;20494;-80
2022/11/27 09:40:51;;;;;;;5.65;3.30;;;12.40;82.10;;;;;;4959099;29;20028;-80
2022/11/27 09:43:21;;;;;;;6.60;3.67;;;12.40;82.20;;;;;;4941829;29;20042;-80
2022/11/27 09:45:51;;;;;;;6.07;3.63;;;12.40;82.30;;;;;;4940996;29;20062;-80
2022/11/27 09:48:31;;;;;;;6.40;3.50;;;12.40;82.20;;;;;;4940041;29;20026;-81
2022/11/27 09:51:00;;;;;;;6.25;3.28;;;12.40;82.30;;;;;;4940584;29;20020;-82
2022/11/27 09:53:50;;;;;;;6.40;3.45;;;12.40;82.40;;;;;;4960522;28;20026;-82
2022/11/27 09:56:18;;;;;;;7.05;3.40;;;12.40;82.50;;;;;;4943587;29;20043;-81
2022/11/27 09:58:49;;;;;;;6.45;3.70;;;12.40;82.40;;;;;;4945896;29;20061;-89
2022/11/27 10:01:24;;;;;;;6.13;3.50;;;12.30;82.20;;;;;;4943773;29;20121;-83
2022/11/27 10:03:50;;;;;;;923.13;85.18;;;12.30;82.20;;;;;;4941957;29;20043;-80
2022/11/27 10:06:25;;;;;;;187.55;20.50;;;12.20;75.40;;;;;;4958715;29;20031;-82
2022/11/27 10:09:09;;;;;;;62.03;9.50;;;12.10;74.60;;;;;;4942273;29;20020;-82
2022/11/27 10:11:50;;;;;;;50.70;9.05;;;12.10;73.50;;;;;;4941283;29;20559;-81
2022/11/27 10:14:15;;;;;;;;;;;12.00;73.60;;;;;;4951511;29;20403;-83
2022/11/27 10:16:50;;;;;;;28.08;6.88;;;12.00;73.70;;;;;;4970984;28;19910;-81
2022/11/27 10:19:26;;;;;;;27.40;6.78;;;11.90;73.80;;;;;;4970829;28;20523;-81
2022/11/27 10:22:16;;;;;;;21.23;6.85;;;11.90;74.00;;;;;;4955648;29;20089;-80
2022/11/27 10:25:02;;;;;;;25.02;6.50;;;11.90;74.00;;;;;;4949670;29;20043;-81
2022/11/27 10:27:33;;;;;;;23.02;7.03;;;11.90;74.10;;;;;;4939390;29;20038;-81
2022/11/27 10:30:00;;;;;;;28.10;6.85;;;11.90;74.20;;;;;;4946628;28;20525;-82
2022/11/27 10:32:29;;;;;;;27.58;6.70;;;11.90;74.20;;;;;;4954803;28;20035;-81
2022/11/27 10:35:01;;;;;;;22.85;6.82;;;11.80;74.00;;;;;;4952433;28;20037;-81
2022/11/27 10:37:29;;;;;;;22.05;6.50;;;11.90;74.00;;;;;;4956799;28;20035;-80
2022/11/27 10:40:13;;;;;;;25.92;7.18;;;11.80;74.00;;;;;;4954068;28;20057;-80
2022/11/27 10:42:57;;;;;;;20.00;6.95;;;11.80;74.20;;;;;;4959630;28;20090;-81
2022/11/27 10:45:51;;;;;;;23.75;6.60;;;11.80;74.30;;;;;;4938768;29;20047;-80
2022/11/27 10:48:17;;;;;;;18.88;6.35;;;11.80;74.40;;;;;;4954449;28;20034;-81
2022/11/27 10:50:44;;;;;;;53.70;9.65;;;11.90;74.60;;;;;;4938664;29;20058;-82
2022/11/27 10:56:51;;;;;;;45.05;8.98;;;11.90;74.90;;;;;;4975511;28;20158;-81
2022/11/27 10:59:29;;;;;;;37.42;7.68;;;12.00;76.20;;;;;;4961871;28;20023;-78
2022/11/27 11:01:57;;;;;;;42.50;8.38;;;12.00;75.60;;;;;;4937207;29;20031;-78
2022/11/27 11:04:28;;;;;;;30.75;8.35;;;12.10;75.90;;;;;;4936194;29;20063;-79
2022/11/27 11:06:54;;;;;;;41.08;7.53;;;12.10;75.90;;;;;;4956054;29;20086;-79
2022/11/27 11:09:33;;;;;;;30.63;7.05;;;12.10;76.40;;;;;;4940533;29;20436;-79
2022/11/27 11:12:15;;;;;;;26.20;7.05;;;12.20;76.80;;;;;;4940292;29;20380;-79
2022/11/27 11:14:50;;;;;;;33.70;6.63;;;12.30;77.00;;;;;;4940916;29;20050;-79
2022/11/27 11:17:17;;;;;;;28.75;7.18;;;12.30;77.50;;;;;;4957760;29;20027;-80
2022/11/27 11:19:44;;;;;;;35.20;6.97;;;12.40;77.40;;;;;;4940032;29;20020;-79
2022/11/27 11:22:14;;;;;;;22.45;5.65;;;12.40;77.10;;;;;;4957374;29;20112;-81
2022/11/27 11:24:47;;;;;;;14.75;5.22;;;12.40;75.70;;;;;;4956123;28;20054;-79
2022/11/27 11:27:26;;;;;;;14.85;4.85;;;12.30;73.10;;;;;;4955711;29;20042;-75
2022/11/27 11:30:03;;;;;;;12.02;5.03;;;12.10;72.10;;;;;;4940730;29;20374;-79
2022/11/27 11:32:33;;;;;;;10.57;4.75;;;12.10;72.40;;;;;;4939390;28;20047;-80
2022/11/27 11:35:07;;;;;;;7.78;4.07;;;12.10;72.60;;;;;;4956079;29;20122;-77
2022/11/27 11:37:37;;;;;;;9.50;4.25;;;12.10;71.80;;;;;;4939149;29;20129;-78
2022/11/27 11:40:30;;;;;;;10.02;4.53;;;12.10;71.90;;;;;;4939323;29;20027;-79
2022/11/27 11:43:08;;;;;;;9.60;5.00;;;12.20;72.20;;;;;;4936767;29;20208;-78
2022/11/27 11:45:44;;;;;;;11.80;4.18;;;12.30;74.40;;;;;;4940520;29;20137;-78
2022/11/27 11:48:24;;;;;;;8.95;4.38;;;12.50;74.00;;;;;;4939724;29;20046;-79
2022/11/27 11:50:53;;;;;;;7.57;3.90;;;12.80;74.80;;;;;;4956233;28;20067;-77
2022/11/27 11:53:35;;;;;;;11.75;4.43;;;12.90;75.00;;;;;;4953584;28;20023;-83
2022/11/27 11:56:30;;;;;;;17.20;5.05;;;13.10;76.40;;;;;;4939716;29;20352;-80
2022/11/27 11:59:16;;;;;;;19.10;4.72;;;13.20;76.10;;;;;;4939106;29;20110;-78
2022/11/27 12:01:53;;;;;;;13.20;4.38;;;13.30;77.10;;;;;;4956785;29;20086;-80
2022/11/27 12:04:47;;;;;;;13.63;5.22;;;13.40;77.40;;;;;;4939736;28;20035;-80
2022/11/27 12:07:30;;;;;;;15.48;4.80;;;13.40;77.70;;;;;;4939200;28;20043;-80
2022/11/27 12:10:16;;;;;;;15.13;4.22;;;13.50;78.10;;;;;;4972301;28;20550;-80
2022/11/27 12:13:00;;;;;;;20.15;4.97;;;13.50;78.10;;;;;;4953481;29;20031;-79
2022/11/27 12:15:55;;;;;;;14.02;4.60;;;13.60;78.00;;;;;;4956491;29;20511;-78
2022/11/27 12:18:38;;;;;;;10.55;4.53;;;13.60;77.90;;;;;;4955965;29;20020;-77
2022/11/27 12:21:14;;;;;;;10.82;4.68;;;13.50;78.10;;;;;;4957052;29;20030;-82
2022/11/27 12:23:58;;;;;;;15.35;4.70;;;13.40;78.90;;;;;;4939828;29;20042;-80
2022/11/27 12:27:06;;;;;;;12.73;4.25;;;13.30;78.70;;;;;;4955680;29;20507;-79
2022/11/27 12:30:03;;;;;;;11.88;3.90;;;13.20;79.20;;;;;;4947775;29;20100;-76
2022/11/27 12:32:37;;;;;;;12.55;4.18;;;13.20;79.10;;;;;;4951987;28;20034;-78
2022/11/27 12:35:25;;;;;;;12.55;4.50;;;13.10;79.20;;;;;;4952249;28;20118;-78
2022/11/27 12:37:53;;;;;;;13.25;4.50;;;13.10;79.30;;;;;;4954918;29;20123;-76
2022/11/27 12:40:31;;;;;;;11.27;4.38;;;13.10;79.30;;;;;;4955563;28;20027;-76
2022/11/27 12:43:15;;;;;;;12.75;4.63;;;13.10;79.30;;;;;;4937926;29;20061;-78
2022/11/27 12:45:53;;;;;;;9.73;4.38;;;13.10;79.40;;;;;;4954770;29;20086;-78
2022/11/27 12:48:25;;;;;;;12.48;4.35;;;13.00;79.50;;;;;;4938114;29;20487;-77
2022/11/27 12:51:00;;;;;;;12.20;4.32;;;13.00;79.50;;;;;;4947700;29;20032;-79
2022/11/27 12:53:33;;;;;;;12.43;4.30;;;13.00;79.40;;;;;;4930342;29;20023;-78
2022/11/27 12:56:17;;;;;;;11.60;4.35;;;13.00;79.20;;;;;;4938316;29;20031;-79
2022/11/27 12:58:49;;;;;;;11.88;4.30;;;13.10;79.10;;;;;;4937799;29;20031;-79
2022/11/27 13:01:21;;;;;;;8.57;3.55;;;13.10;78.90;;;;;;4934310;29;20373;-77
2022/11/27 13:03:50;;;;;;;;;;;13.10;78.90;;;;;;4937466;29;20070;-78
2022/11/27 13:06:20;;;;;;;12.35;4.63;;;13.10;78.90;;;;;;4936794;29;20515;-76